createdAt,value
2023-03-28T08:37:57.700Z,6.10
2023-03-28T08:43:09.892Z,6.10
2023-03-28T08:48:15.850Z,6.00
2023-03-28T08:53:19.693Z,6.10
2023-03-28T08:58:20.074Z,6.50
2023-03-28T09:03:16.236Z,6.30
2023-03-28T09:08:32.117Z,6.30
2023-03-28T09:13:34.651Z,6.40
2023-03-28T09:19:00.690Z,6.70
2023-03-28T09:24:33.932Z,6.80
2023-03-28T09:29:42.703Z,6.70
2023-03-28T09:34:40.476Z,7.20
2023-03-28T09:39:38.718Z,7.30
2023-03-28T09:44:53.571Z,7.60
2023-03-28T09:50:19.356Z,7.80
2023-03-28T09:55:23.378Z,7.40
2023-03-28T10:00:23.205Z,7.60
2023-03-28T10:05:38.768Z,7.00
2023-03-28T10:10:46.229Z,7.00
2023-03-28T10:15:47.015Z,6.80
2023-03-28T10:20:46.977Z,6.90
2023-03-28T10:25:43.427Z,6.80
2023-03-28T10:30:39.201Z,6.70
2023-03-28T10:35:36.546Z,6.40
2023-03-28T10:40:44.280Z,6.30
2023-03-28T10:46:02.640Z,6.60
2023-03-28T10:51:22.247Z,7.60
2023-03-28T10:56:27.680Z,7.80
2023-03-28T11:01:25.280Z,7.40
2023-03-28T11:06:53.586Z,7.50
2023-03-28T11:12:10.203Z,8.50
2023-03-28T11:17:13.839Z,9.30
2023-03-28T11:22:25.986Z,8.60
2023-03-28T11:27:27.233Z,8.70
2023-03-28T11:32:28.024Z,9.10
2023-03-28T11:37:27.168Z,9.10
2023-03-28T11:42:25.830Z,8.90
2023-03-28T11:47:24.305Z,8.30
2023-03-28T11:52:29.249Z,8.00
2023-03-28T11:57:29.944Z,7.50
2023-03-28T12:02:41.607Z,8.30
2023-03-28T12:07:40.451Z,8.20
2023-03-28T12:13:05.851Z,8.40
2023-03-28T12:18:08.937Z,8.30
2023-03-28T12:23:09.390Z,8.10
2023-03-28T12:28:32.423Z,8.20
2023-03-28T12:33:36.946Z,8.90
2023-03-28T12:38:42.528Z,8.70
2023-03-28T12:43:52.252Z,8.50
2023-03-28T12:48:58.331Z,8.80
2023-03-28T12:54:07.517Z,9.20
2023-03-28T12:59:01.336Z,9.60
2023-03-28T13:04:18.462Z,9.80
2023-03-28T13:10:01.335Z,9.50
2023-03-28T13:15:03.664Z,9.60
2023-03-28T13:20:08.895Z,9.50
2023-03-28T13:25:26.708Z,9.70
2023-03-28T13:30:24.510Z,10.20
2023-03-28T13:35:40.588Z,10.00
2023-03-28T13:40:51.554Z,9.90
2023-03-28T13:45:45.655Z,10.60
2023-03-28T13:50:41.461Z,10.40
2023-03-28T13:55:36.103Z,10.40
2023-03-28T14:00:32.383Z,9.70
2023-03-28T14:05:27.864Z,9.60
2023-03-28T14:10:29.383Z,9.60
2023-03-28T14:15:26.313Z,10.00
2023-03-28T14:20:20.419Z,10.10
2023-03-28T14:25:16.170Z,10.40
2023-03-28T14:30:22.174Z,10.60
2023-03-28T14:35:21.479Z,9.90
2023-03-28T14:40:21.004Z,11.20
2023-03-28T14:45:16.218Z,12.20
2023-03-28T14:50:17.112Z,14.40
2023-03-28T14:55:15.996Z,14.40
2023-03-28T15:00:16.843Z,14.50
2023-03-28T15:05:17.417Z,14.80
2023-03-28T15:10:15.079Z,16.80
2023-03-28T15:15:17.660Z,18.40
2023-03-28T15:20:18.473Z,17.70
2023-03-28T15:25:15.117Z,19.30
2023-03-28T15:30:16.919Z,19.10
2023-03-28T15:35:26.453Z,18.70
2023-03-28T15:40:29.425Z,19.80
2023-03-28T15:45:31.571Z,19.50
2023-03-28T15:50:33.415Z,20.40
2023-03-28T15:55:28.629Z,20.40
2023-03-28T16:00:38.699Z,20.40
2023-03-28T16:05:37.688Z,20.70
2023-03-28T16:10:32.763Z,18.20
2023-03-28T16:16:02.547Z,17.40
2023-03-28T16:21:13.092Z,12.10
2023-03-28T16:26:09.100Z,9.70
2023-03-28T16:31:02.688Z,9.20
2023-03-28T16:35:56.678Z,8.70
2023-03-28T16:40:52.006Z,8.50
2023-03-28T16:45:48.916Z,8.20
2023-03-28T16:50:42.580Z,8.00
2023-03-28T16:55:36.609Z,7.80
2023-03-28T17:00:34.532Z,7.70
2023-03-28T17:05:28.194Z,7.50
2023-03-28T17:10:21.701Z,7.30
2023-03-28T17:15:15.386Z,7.10
2023-03-28T17:20:12.755Z,6.90
2023-03-28T17:25:07.565Z,6.70
2023-03-28T17:30:01.292Z,6.50
2023-03-28T17:34:55.242Z,6.40
2023-03-28T17:39:54.827Z,6.30
2023-03-28T17:44:49.173Z,6.20
2023-03-28T17:49:44.056Z,6.00
2023-03-28T17:54:37.724Z,5.90
2023-03-28T17:59:33.267Z,5.90
2023-03-28T18:04:27.733Z,5.80
2023-03-28T18:09:24.941Z,5.90
2023-03-28T18:14:19.269Z,5.80
2023-03-28T18:19:18.510Z,5.70
2023-03-28T18:24:12.521Z,5.60
2023-03-28T18:29:06.379Z,5.60
2023-03-28T18:34:00.597Z,5.50
2023-03-28T18:38:56.341Z,5.30
2023-03-28T18:43:49.924Z,5.00
2023-03-28T18:48:43.815Z,4.80
2023-03-28T18:53:39.050Z,4.70
2023-03-28T18:58:34.712Z,4.60
2023-03-28T19:03:31.028Z,4.50
2023-03-28T19:08:26.319Z,4.30
2023-03-28T19:13:19.965Z,4.20
2023-03-28T19:18:15.097Z,4.10
2023-03-28T19:23:08.855Z,4.10
2023-03-28T19:28:04.772Z,4.00
2023-03-28T19:32:58.834Z,3.90
2023-03-28T19:37:54.636Z,3.70
2023-03-28T19:42:49.042Z,3.40
2023-03-28T19:47:47.044Z,3.20
2023-03-28T19:52:42.840Z,3.00
